createdAt,value
2024-01-31T00:00:46.723Z,7.90
2024-01-31T00:04:52.498Z,7.80
2024-01-31T00:08:58.744Z,7.80
2024-01-31T00:13:04.488Z,7.70
2024-01-31T00:17:10.015Z,7.70
2024-01-31T00:21:15.634Z,7.60
2024-01-31T00:25:21.198Z,7.60
2024-01-31T00:29:27.074Z,7.50
2024-01-31T00:33:32.636Z,7.50
2024-01-31T00:37:38.264Z,7.40
2024-01-31T00:41:43.866Z,7.40
2024-01-31T00:45:50.042Z,7.40
2024-01-31T00:49:56.469Z,7.40
2024-01-31T00:54:01.891Z,7.30
2024-01-31T00:58:07.357Z,7.30
2024-01-31T01:02:12.697Z,7.30
2024-01-31T01:06:18.112Z,7.20
2024-01-31T01:10:23.629Z,7.20
2024-01-31T01:14:29.034Z,7.10
2024-01-31T01:18:34.437Z,7.10
2024-01-31T01:22:40.334Z,7.10
2024-01-31T01:26:45.770Z,7.00
2024-01-31T01:30:51.132Z,7.00
2024-01-31T01:34:56.607Z,7.00
2024-01-31T01:39:01.933Z,7.00
2024-01-31T01:43:18.121Z,7.00
2024-01-31T01:47:24.700Z,7.00
2024-01-31T01:51:30.336Z,6.90
2024-01-31T01:55:37.024Z,6.90
2024-01-31T01:59:43.784Z,6.90
2024-01-31T02:03:58.524Z,6.90
2024-01-31T02:08:04.488Z,6.90
2024-01-31T02:12:11.102Z,6.80
2024-01-31T02:16:16.569Z,6.70
2024-01-31T02:20:23.514Z,6.80
2024-01-31T02:24:28.881Z,6.70
2024-01-31T02:28:34.216Z,6.70
2024-01-31T02:32:39.709Z,6.60
2024-01-31T02:36:45.150Z,6.60
2024-01-31T02:40:50.787Z,6.50
2024-01-31T02:44:56.161Z,6.50
2024-01-31T02:49:01.633Z,6.50
2024-01-31T02:53:07.081Z,6.50
2024-01-31T02:57:12.658Z,6.50
2024-01-31T03:01:18.447Z,6.40
2024-01-31T03:05:24.092Z,6.30
2024-01-31T03:09:29.555Z,6.40
2024-01-31T03:13:34.964Z,6.30
2024-01-31T03:17:40.499Z,6.30
2024-01-31T03:21:46.044Z,6.30
2024-01-31T03:25:51.637Z,6.30
2024-01-31T03:30:02.819Z,6.20
2024-01-31T03:34:14.039Z,6.20
2024-01-31T03:38:19.466Z,6.20
2024-01-31T03:42:24.861Z,6.20
2024-01-31T03:46:30.337Z,6.10
2024-01-31T03:50:35.715Z,6.10
2024-01-31T03:54:41.105Z,6.10
2024-01-31T03:58:46.482Z,6.10
2024-01-31T04:02:51.945Z,6.10
2024-01-31T04:06:57.352Z,6.10
2024-01-31T04:11:03.669Z,6.00
2024-01-31T04:15:09.350Z,6.00
2024-01-31T04:19:14.814Z,6.00
2024-01-31T04:23:20.245Z,6.00
2024-01-31T04:27:25.657Z,6.00
2024-01-31T04:31:31.075Z,6.00
2024-01-31T04:35:36.582Z,6.00
2024-01-31T04:39:41.992Z,5.90
2024-01-31T04:43:47.397Z,5.90
2024-01-31T04:47:52.777Z,5.80
2024-01-31T04:51:58.170Z,5.90
2024-01-31T04:56:08.279Z,5.90
2024-01-31T05:00:17.210Z,5.80
2024-01-31T05:04:22.816Z,5.80
2024-01-31T05:08:29.901Z,5.80
2024-01-31T05:12:35.320Z,5.80
2024-01-31T05:16:41.576Z,5.80
2024-01-31T05:20:47.067Z,5.80
2024-01-31T05:24:52.390Z,5.80
2024-01-31T05:28:58.168Z,5.80
2024-01-31T05:33:03.970Z,5.80
2024-01-31T05:37:09.446Z,5.80
2024-01-31T05:41:15.399Z,5.70
2024-01-31T05:45:20.847Z,5.70
2024-01-31T05:49:26.719Z,5.70
2024-01-31T05:53:32.246Z,5.80
2024-01-31T05:57:37.666Z,5.80
2024-01-31T06:01:43.093Z,5.80
2024-01-31T06:05:49.002Z,5.80
2024-01-31T06:09:54.445Z,5.80
2024-01-31T06:13:59.878Z,5.80
2024-01-31T06:18:05.933Z,5.80
2024-01-31T06:22:11.337Z,5.80
2024-01-31T06:26:16.857Z,5.80
2024-01-31T06:30:22.920Z,5.80
2024-01-31T06:34:28.382Z,5.80
2024-01-31T06:38:33.914Z,5.80
2024-01-31T06:42:39.510Z,5.80
2024-01-31T06:46:49.065Z,5.80
2024-01-31T06:50:54.677Z,5.90
2024-01-31T06:55:00.198Z,5.90
2024-01-31T06:59:05.593Z,5.90
2024-01-31T07:03:12.754Z,5.90
2024-01-31T07:07:18.235Z,5.90
2024-01-31T07:11:23.654Z,5.90
2024-01-31T07:15:29.039Z,5.90
2024-01-31T07:19:34.459Z,5.90
2024-01-31T07:23:40.033Z,5.90
2024-01-31T07:27:45.737Z,5.90
2024-01-31T07:31:51.208Z,5.90
2024-01-31T07:35:56.668Z,5.90
2024-01-31T07:40:05.111Z,5.90
2024-01-31T07:44:10.467Z,5.90
2024-01-31T07:48:15.878Z,5.90
2024-01-31T07:52:21.354Z,5.90
2024-01-31T07:56:26.727Z,5.80
2024-01-31T08:00:32.140Z,5.80
2024-01-31T08:04:37.833Z,5.80
2024-01-31T08:08:46.628Z,5.90
2024-01-31T08:12:52.127Z,5.90
2024-01-31T08:16:57.650Z,5.90
2024-01-31T08:21:03.503Z,5.90
2024-01-31T08:25:09.851Z,6.00
2024-01-31T08:29:22.815Z,6.00
2024-01-31T08:33:32.512Z,6.00
2024-01-31T08:37:38.202Z,6.00
2024-01-31T08:41:45.638Z,6.00
2024-01-31T08:45:51.144Z,6.00
2024-01-31T08:49:56.808Z,6.10
2024-01-31T08:54:02.758Z,6.20
2024-01-31T08:58:08.174Z,6.20
2024-01-31T09:02:13.695Z,6.20
2024-01-31T09:06:19.217Z,6.20
2024-01-31T09:10:26.346Z,6.30
2024-01-31T09:14:31.739Z,6.30
2024-01-31T09:18:39.431Z,6.40
2024-01-31T09:22:46.526Z,6.40
2024-01-31T09:26:52.201Z,6.50
2024-01-31T09:30:57.891Z,6.50
2024-01-31T09:35:03.833Z,6.60
2024-01-31T09:39:09.325Z,6.60
2024-01-31T09:43:15.044Z,6.60
2024-01-31T09:47:20.773Z,6.70
2024-01-31T09:51:26.642Z,6.70
2024-01-31T09:55:35.375Z,6.70
2024-01-31T09:59:40.713Z,6.70
2024-01-31T10:03:46.074Z,6.70
2024-01-31T10:07:51.580Z,6.80
2024-01-31T10:11:57.141Z,6.90
2024-01-31T10:16:02.694Z,6.90
2024-01-31T10:20:12.556Z,6.90
2024-01-31T10:24:18.950Z,6.90
2024-01-31T10:28:24.476Z,7.00
2024-01-31T10:32:30.666Z,7.10
2024-01-31T10:40:45.444Z,7.10
2024-01-31T10:44:51.375Z,7.10
2024-01-31T10:48:57.183Z,7.10
2024-01-31T10:53:05.883Z,7.10
2024-01-31T10:57:11.364Z,7.20
2024-01-31T11:01:17.075Z,7.20
2024-01-31T11:05:22.569Z,7.30
2024-01-31T11:09:29.492Z,7.50
2024-01-31T11:13:37.816Z,7.60
2024-01-31T11:17:46.365Z,7.60
2024-01-31T11:21:51.875Z,7.70
2024-01-31T11:25:57.360Z,7.70
2024-01-31T11:30:04.326Z,7.70
2024-01-31T11:34:10.249Z,7.60
2024-01-31T11:38:16.346Z,7.60
2024-01-31T11:42:21.748Z,7.60
2024-01-31T11:46:27.070Z,7.50
2024-01-31T11:50:32.670Z,7.40
2024-01-31T11:54:38.059Z,7.40
2024-01-31T11:58:44.893Z,7.50
2024-01-31T12:02:51.180Z,7.50
2024-01-31T12:07:06.393Z,7.50
2024-01-31T12:11:11.853Z,7.60
2024-01-31T12:15:18.069Z,7.60
2024-01-31T12:19:25.126Z,7.60
2024-01-31T12:23:31.164Z,7.50
2024-01-31T12:27:36.645Z,7.40
2024-01-31T12:31:42.004Z,7.40
2024-01-31T12:35:48.003Z,7.30
2024-01-31T12:39:53.553Z,7.30
2024-01-31T12:43:59.442Z,7.30
2024-01-31T12:48:05.900Z,7.20
2024-01-31T12:52:12.955Z,7.20
2024-01-31T12:56:18.682Z,7.10
2024-01-31T13:00:24.251Z,7.10
2024-01-31T13:04:30.091Z,7.10
2024-01-31T13:08:36.515Z,7.00
2024-01-31T13:12:42.848Z,7.10
2024-01-31T13:16:55.355Z,7.00
2024-01-31T13:21:08.002Z,7.00
2024-01-31T13:25:13.470Z,7.00
2024-01-31T13:29:20.312Z,7.00
2024-01-31T13:33:26.076Z,7.00
2024-01-31T13:37:31.671Z,6.90
2024-01-31T13:41:37.434Z,6.90
2024-01-31T13:45:43.000Z,6.80
2024-01-31T13:49:48.325Z,6.90
2024-01-31T13:53:54.104Z,6.80
2024-01-31T13:57:59.539Z,6.70
2024-01-31T14:02:04.918Z,6.60
2024-01-31T14:06:10.468Z,6.60
2024-01-31T14:10:15.945Z,6.60
2024-01-31T14:14:21.642Z,6.60
2024-01-31T14:18:27.215Z,6.60
2024-01-31T14:22:49.421Z,6.60
2024-01-31T14:27:02.997Z,6.60
2024-01-31T14:31:09.938Z,6.50
2024-01-31T14:35:15.447Z,6.50
2024-01-31T14:39:20.879Z,6.40
2024-01-31T14:43:27.707Z,6.40
2024-01-31T14:47:33.188Z,6.30
2024-01-31T14:51:41.675Z,6.40
2024-01-31T14:55:46.977Z,6.40
2024-01-31T14:59:52.992Z,6.40
2024-01-31T15:03:59.035Z,6.30
2024-01-31T15:08:04.977Z,6.30
2024-01-31T15:12:10.782Z,6.30
2024-01-31T15:16:16.215Z,6.30
2024-01-31T15:20:21.654Z,6.30
2024-01-31T15:24:28.180Z,6.30
2024-01-31T15:28:33.576Z,6.20
2024-01-31T15:32:39.033Z,6.20
2024-01-31T15:36:47.193Z,6.20
2024-01-31T15:40:52.929Z,6.20
2024-01-31T15:44:58.396Z,6.10
2024-01-31T15:49:04.054Z,6.10
2024-01-31T15:53:09.919Z,6.10
2024-01-31T15:57:15.522Z,6.10
2024-01-31T16:01:21.083Z,6.10
2024-01-31T16:05:26.631Z,6.00
2024-01-31T16:09:32.196Z,6.00
2024-01-31T16:13:38.761Z,6.00
2024-01-31T16:17:45.089Z,6.00
2024-01-31T16:21:50.788Z,6.00
2024-01-31T16:25:56.439Z,6.00
2024-01-31T16:30:02.311Z,6.00
2024-01-31T16:34:08.207Z,6.00
2024-01-31T16:38:13.841Z,6.00
2024-01-31T16:42:20.332Z,6.00
2024-01-31T16:46:27.154Z,6.00
2024-01-31T16:50:32.713Z,6.00
2024-01-31T16:54:38.863Z,6.00
2024-01-31T16:58:44.423Z,6.00
2024-01-31T17:02:51.416Z,6.00
2024-01-31T17:06:57.074Z,6.00
2024-01-31T17:11:03.356Z,6.00
2024-01-31T17:15:09.185Z,6.00
2024-01-31T17:19:14.942Z,6.00
2024-01-31T17:23:20.864Z,6.00
2024-01-31T17:27:26.351Z,6.00
2024-01-31T17:31:33.809Z,6.00
2024-01-31T17:35:39.461Z,6.00
2024-01-31T17:39:45.072Z,6.00
2024-01-31T17:43:50.565Z,6.00
2024-01-31T17:47:56.885Z,6.00
2024-01-31T17:52:03.000Z,6.10
2024-01-31T17:56:10.455Z,6.00
2024-01-31T18:00:20.056Z,6.10
2024-01-31T18:04:26.886Z,6.10
2024-01-31T18:08:32.533Z,6.10
2024-01-31T18:12:38.334Z,6.10
2024-01-31T18:16:44.153Z,6.10
2024-01-31T18:20:50.114Z,6.10
2024-01-31T18:24:56.263Z,6.10
2024-01-31T18:29:02.067Z,6.10
2024-01-31T18:33:07.969Z,6.10
2024-01-31T18:37:19.199Z,6.10
2024-01-31T18:41:25.928Z,6.10
2024-01-31T18:45:31.548Z,6.20
2024-01-31T18:49:37.281Z,6.20
2024-01-31T18:53:44.012Z,6.20
2024-01-31T18:57:49.876Z,6.20
2024-01-31T19:01:55.436Z,6.30
2024-01-31T19:06:01.526Z,6.30
2024-01-31T19:10:07.671Z,6.30
2024-01-31T19:14:20.684Z,6.30
2024-01-31T19:18:26.422Z,6.30
2024-01-31T19:22:32.477Z,6.30
2024-01-31T19:26:38.748Z,6.40
2024-01-31T19:30:44.447Z,6.40
2024-01-31T19:34:50.135Z,6.40
2024-01-31T19:38:57.114Z,6.40
2024-01-31T19:43:03.805Z,6.50
2024-01-31T19:47:09.370Z,6.50
2024-01-31T19:51:14.988Z,6.50
2024-01-31T19:55:20.843Z,6.50
2024-01-31T19:59:26.809Z,6.60
2024-01-31T20:03:32.301Z,6.60
2024-01-31T20:07:37.908Z,6.60
2024-01-31T20:11:43.676Z,6.70
2024-01-31T20:15:49.223Z,6.70
2024-01-31T20:19:54.820Z,6.70
2024-01-31T20:24:01.968Z,6.80
2024-01-31T20:28:07.587Z,6.80
2024-01-31T20:32:13.195Z,6.70
2024-01-31T20:36:18.910Z,6.80
2024-01-31T20:40:24.389Z,6.80
2024-01-31T20:44:29.973Z,6.80
2024-01-31T20:48:40.868Z,6.80
2024-01-31T20:52:47.203Z,6.80
2024-01-31T20:56:52.833Z,6.80
2024-01-31T21:00:58.649Z,6.80
2024-01-31T21:05:04.608Z,6.80
2024-01-31T21:09:10.319Z,6.80
2024-01-31T21:13:17.589Z,6.90
2024-01-31T21:17:23.103Z,6.90
2024-01-31T21:21:28.566Z,6.90
2024-01-31T21:25:34.146Z,6.90
2024-01-31T21:29:40.276Z,6.90
2024-01-31T21:33:45.916Z,7.00
2024-01-31T21:37:54.393Z,7.00
2024-01-31T21:41:59.706Z,7.00
2024-01-31T21:46:06.833Z,6.90
2024-01-31T21:50:12.580Z,7.00
2024-01-31T21:54:18.003Z,7.00
2024-01-31T21:58:23.475Z,7.00
2024-01-31T22:02:30.713Z,7.00
2024-01-31T22:06:36.577Z,7.00
2024-01-31T22:10:42.080Z,7.00
2024-01-31T22:14:47.820Z,7.00
2024-01-31T22:18:53.473Z,7.00
2024-01-31T22:22:58.969Z,7.00
2024-01-31T22:27:04.849Z,7.00
2024-01-31T22:31:10.360Z,7.00
2024-01-31T22:35:15.836Z,7.00
2024-01-31T22:39:21.692Z,7.00
2024-01-31T22:43:27.039Z,7.00
2024-01-31T22:47:32.607Z,7.00
2024-01-31T22:51:39.817Z,7.00
2024-01-31T22:55:45.233Z,7.00
2024-01-31T22:59:50.662Z,6.90
2024-01-31T23:03:56.153Z,6.80
2024-01-31T23:08:01.557Z,6.80
2024-01-31T23:12:07.186Z,6.70
2024-01-31T23:16:12.660Z,6.70
2024-01-31T23:20:18.057Z,6.70
2024-01-31T23:24:23.822Z,6.70
2024-01-31T23:28:29.271Z,6.70
2024-01-31T23:32:35.866Z,6.60
2024-01-31T23:36:41.362Z,6.60
2024-01-31T23:40:47.028Z,6.60
2024-01-31T23:44:52.379Z,6.50
2024-01-31T23:48:57.910Z,6.50
2024-01-31T23:53:04.904Z,6.40
2024-01-31T23:57:10.462Z,6.40
